Hillsboro, North Dakota
Current Conditions -  °F | °C
As of 12:53 AM on Thursday 27 Nov 2014 (Local Time) from KFAR Reporting Station
Clear Clear  
Wind Chill: -11°   Ceiling: Unl
Heat Index: -11°   Visibility: 10mi
Dew Point: -19°   Wind: 0mph
Humidity: 68%   Direction: NA
Pressure: 30.57"   Gusts: NA
Location:  47.4°N, 97.06°W
Report Text: KFAR 270653Z 00000KT 10SM CLR M24/M28 A3057 RMK AO2 SLP380 T12391283
Loading
Personal Weather Stations






























Interactive Weather Map New forecast layout! Learn more

10-Day Weather Forecast

Advertisements
Track Severe Weather on mobile